createdAt,value
2023-03-26T00:01:40.565Z,3.60
2023-03-26T00:04:08.017Z,3.97
2023-03-26T00:06:39.414Z,4.27
2023-03-26T00:09:09.149Z,3.67
2023-03-26T00:11:36.081Z,3.00
2023-03-26T00:14:03.683Z,4.27
2023-03-26T00:16:32.066Z,2.77
2023-03-26T00:19:00.110Z,2.13
2023-03-26T00:21:29.206Z,2.30
2023-03-26T00:23:59.758Z,2.17
2023-03-26T00:26:31.216Z,1.87
2023-03-26T00:28:58.514Z,1.93
2023-03-26T00:31:25.392Z,2.33
2023-03-26T00:33:56.814Z,2.00
2023-03-26T00:36:27.818Z,1.77
2023-03-26T00:38:58.861Z,2.37
2023-03-26T00:41:31.140Z,1.50
2023-03-26T00:43:59.781Z,2.37
2023-03-26T00:46:28.503Z,1.80
2023-03-26T00:48:59.106Z,2.00
2023-03-26T00:51:26.855Z,2.10
2023-03-26T00:53:54.030Z,2.60
2023-03-26T00:56:20.857Z,1.97
2023-03-26T00:58:50.007Z,3.00
2023-03-26T01:01:28.039Z,2.03
2023-03-26T01:04:08.441Z,2.20
2023-03-26T01:06:38.203Z,2.33
2023-03-26T01:09:16.548Z,2.20
2023-03-26T01:11:43.688Z,2.03
2023-03-26T01:14:13.483Z,2.17
2023-03-26T01:16:45.172Z,2.93
2023-03-26T01:19:21.219Z,2.50
2023-03-26T01:21:48.427Z,2.20
2023-03-26T01:24:15.237Z,2.07
2023-03-26T01:26:52.804Z,2.53
2023-03-26T01:29:41.612Z,2.97
2023-03-26T01:32:28.896Z,2.73
2023-03-26T01:35:22.250Z,2.70
2023-03-26T01:38:13.883Z,2.70
2023-03-26T01:41:00.123Z,2.53
2023-03-26T01:43:55.404Z,3.47
2023-03-26T01:46:24.184Z,3.77
2023-03-26T01:48:51.746Z,3.63
2023-03-26T01:51:33.914Z,3.50
2023-03-26T01:54:03.429Z,3.87
2023-03-26T01:56:47.184Z,3.50
2023-03-26T01:59:20.440Z,2.77
2023-03-26T02:02:04.863Z,3.67
2023-03-26T02:04:37.820Z,3.33
2023-03-26T02:07:20.938Z,3.83
2023-03-26T02:09:51.054Z,3.20
2023-03-26T02:12:18.750Z,3.20
2023-03-26T02:14:46.382Z,2.83
2023-03-26T02:17:13.646Z,3.37
2023-03-26T02:19:43.415Z,3.23
2023-03-26T02:22:11.438Z,2.80
2023-03-26T02:24:39.068Z,3.23
2023-03-26T02:27:07.866Z,2.67
2023-03-26T02:29:38.250Z,3.50
2023-03-26T02:32:13.379Z,2.97
2023-03-26T02:34:41.153Z,2.10
2023-03-26T02:37:08.971Z,3.40
2023-03-26T02:39:37.349Z,3.10
2023-03-26T02:42:11.551Z,2.60
2023-03-26T02:44:45.767Z,2.57
2023-03-26T02:47:18.928Z,3.17
2023-03-26T02:50:04.629Z,2.97
2023-03-26T02:52:49.900Z,2.70
2023-03-26T02:55:17.144Z,3.87
2023-03-26T02:57:45.861Z,2.43
2023-03-26T03:00:18.151Z,2.30
2023-03-26T03:02:48.084Z,2.53
2023-03-26T03:05:31.895Z,2.73
2023-03-26T03:08:18.706Z,2.97
2023-03-26T03:11:12.272Z,3.43
2023-03-26T03:13:48.982Z,3.03
2023-03-26T03:16:20.228Z,2.40
2023-03-26T03:18:54.528Z,2.60
2023-03-26T03:21:24.324Z,2.60
2023-03-26T03:23:51.811Z,2.60
2023-03-26T03:26:23.034Z,2.60
2023-03-26T03:28:52.562Z,2.10
2023-03-26T03:31:19.761Z,3.00
2023-03-26T03:33:46.655Z,3.03
2023-03-26T03:36:20.097Z,3.20
2023-03-26T03:38:51.181Z,2.37
2023-03-26T03:41:20.474Z,2.53
2023-03-26T03:43:47.288Z,2.60
2023-03-26T03:46:23.550Z,3.20
2023-03-26T03:48:50.452Z,2.30
2023-03-26T03:51:22.293Z,2.80
2023-03-26T03:54:11.763Z,2.53
2023-03-26T03:57:02.245Z,3.50
2023-03-26T03:59:38.981Z,2.77
2023-03-26T04:02:21.321Z,2.63
2023-03-26T04:04:57.733Z,2.50
2023-03-26T04:07:25.622Z,2.33
2023-03-26T04:10:15.415Z,2.43
2023-03-26T04:13:04.735Z,2.23
2023-03-26T04:15:57.776Z,3.67
2023-03-26T04:18:26.371Z,2.40
2023-03-26T04:20:55.805Z,3.90
2023-03-26T04:23:26.686Z,2.33
2023-03-26T04:26:07.488Z,2.83
2023-03-26T04:29:00.993Z,2.90
2023-03-26T04:31:30.770Z,2.67
2023-03-26T04:34:14.237Z,2.60
2023-03-26T04:37:03.235Z,2.50
2023-03-26T04:39:34.038Z,2.73
2023-03-26T04:42:38.077Z,2.43
2023-03-26T04:45:14.976Z,2.20
2023-03-26T04:47:46.583Z,2.00
2023-03-26T04:50:14.090Z,2.80
2023-03-26T04:52:43.880Z,3.03
2023-03-26T04:55:56.212Z,3.10
2023-03-26T04:58:43.042Z,2.60
2023-03-26T05:01:11.233Z,2.40
2023-03-26T05:03:42.600Z,2.30
2023-03-26T05:06:13.891Z,2.47
2023-03-26T05:08:41.838Z,2.80
2023-03-26T05:11:13.059Z,2.20
2023-03-26T05:13:42.878Z,2.17
2023-03-26T05:16:12.371Z,2.00
2023-03-26T05:18:43.794Z,2.17
2023-03-26T05:21:11.245Z,2.80
2023-03-26T05:23:39.430Z,3.23
2023-03-26T05:26:19.318Z,3.53
2023-03-26T05:28:46.257Z,2.40
2023-03-26T05:31:36.464Z,1.87
2023-03-26T05:34:04.194Z,2.53
2023-03-26T05:36:31.544Z,1.97
2023-03-26T05:39:18.297Z,2.33
2023-03-26T05:42:03.682Z,2.30
2023-03-26T05:44:48.366Z,1.97
2023-03-26T05:47:22.193Z,2.07
2023-03-26T05:49:49.140Z,1.57
2023-03-26T05:52:18.986Z,1.90
2023-03-26T05:55:16.059Z,1.83
2023-03-26T05:58:13.425Z,1.77
2023-03-26T06:01:08.523Z,2.00
2023-03-26T06:04:01.798Z,1.40
2023-03-26T06:06:33.256Z,1.73
2023-03-26T06:09:01.813Z,1.57
2023-03-26T06:11:32.090Z,1.70
2023-03-26T06:14:00.801Z,1.70
2023-03-26T06:16:28.384Z,1.33
2023-03-26T06:19:15.949Z,1.47
2023-03-26T06:22:05.978Z,1.93
2023-03-26T06:24:48.280Z,1.97
2023-03-26T06:27:40.343Z,1.90
2023-03-26T06:30:37.274Z,2.23
2023-03-26T06:33:25.446Z,1.80
2023-03-26T06:35:53.078Z,1.53
2023-03-26T06:38:20.460Z,1.40
2023-03-26T06:40:47.270Z,2.17
2023-03-26T06:43:16.986Z,2.47
2023-03-26T06:46:04.329Z,2.00
2023-03-26T06:48:31.767Z,2.27
2023-03-26T06:51:27.189Z,2.30
2023-03-26T06:54:12.434Z,2.37
2023-03-26T06:57:18.100Z,2.37
2023-03-26T07:00:24.549Z,1.70
2023-03-26T07:03:11.496Z,1.60
2023-03-26T07:05:57.302Z,1.87
2023-03-26T07:09:02.319Z,1.77
2023-03-26T07:11:47.903Z,1.83
2023-03-26T07:14:14.824Z,1.90
2023-03-26T07:16:59.736Z,2.40
2023-03-26T07:19:33.944Z,2.17
2023-03-26T07:22:01.230Z,1.93
2023-03-26T07:25:07.773Z,1.40
2023-03-26T07:28:07.283Z,1.20
2023-03-26T07:31:17.139Z,1.20
2023-03-26T07:34:22.710Z,1.00
2023-03-26T07:37:22.799Z,1.30
2023-03-26T07:40:37.439Z,1.30
2023-03-26T07:44:07.345Z,1.70
2023-03-26T07:46:47.990Z,1.33
2023-03-26T07:49:34.153Z,1.43
2023-03-26T07:52:19.980Z,1.33
2023-03-26T07:54:58.331Z,0.97
2023-03-26T07:58:16.407Z,1.20
2023-03-26T08:01:24.888Z,1.03
2023-03-26T08:04:23.107Z,1.10
2023-03-26T08:07:24.906Z,1.13
2023-03-26T08:10:52.035Z,1.20
2023-03-26T08:13:29.211Z,1.30
2023-03-26T08:16:10.926Z,1.37
2023-03-26T08:18:41.365Z,0.90
2023-03-26T08:21:19.695Z,1.30
2023-03-26T08:24:05.534Z,1.00
2023-03-26T08:26:36.369Z,1.00
2023-03-26T08:29:12.089Z,1.20
2023-03-26T08:31:43.731Z,0.97
2023-03-26T08:34:12.242Z,1.30
2023-03-26T08:36:39.320Z,1.13
2023-03-26T08:39:06.761Z,1.27
2023-03-26T08:42:11.790Z,1.53
2023-03-26T08:45:17.135Z,1.30
2023-03-26T08:47:57.323Z,1.40
2023-03-26T08:50:30.279Z,1.23
2023-03-26T08:53:16.641Z,1.20
2023-03-26T08:55:49.413Z,1.30
2023-03-26T08:58:37.440Z,1.50
2023-03-26T09:01:07.358Z,1.03
2023-03-26T09:03:37.467Z,1.10
2023-03-26T09:06:25.261Z,1.10
2023-03-26T09:09:22.008Z,1.00
2023-03-26T09:12:08.194Z,1.20
2023-03-26T09:14:47.739Z,1.00
2023-03-26T09:17:43.907Z,1.20
2023-03-26T09:20:13.887Z,0.97
2023-03-26T09:23:03.030Z,1.27
2023-03-26T09:25:35.227Z,1.33
2023-03-26T09:28:20.692Z,1.37
2023-03-26T09:31:12.395Z,1.00
2023-03-26T09:34:00.427Z,1.30
2023-03-26T09:36:41.586Z,1.17
2023-03-26T09:39:29.944Z,1.07
2023-03-26T09:42:09.191Z,1.23
2023-03-26T09:44:56.765Z,1.27
2023-03-26T09:47:45.842Z,1.20
2023-03-26T09:50:41.071Z,1.00
2023-03-26T09:53:53.673Z,1.20
2023-03-26T09:56:52.608Z,1.13
2023-03-26T09:59:25.705Z,1.20
2023-03-26T10:02:04.875Z,1.30
2023-03-26T10:04:50.210Z,1.30
2023-03-26T10:07:30.356Z,1.20
2023-03-26T10:10:05.336Z,1.30
2023-03-26T10:12:46.556Z,1.10
2023-03-26T10:15:46.946Z,1.40
2023-03-26T10:18:32.550Z,1.33
2023-03-26T10:21:04.902Z,1.23
2023-03-26T10:23:40.796Z,1.40
2023-03-26T10:26:21.861Z,1.40
2023-03-26T10:29:13.404Z,1.00
2023-03-26T10:32:16.300Z,1.07
2023-03-26T10:35:05.090Z,1.20
2023-03-26T10:38:11.012Z,1.13
2023-03-26T10:40:43.181Z,1.20
2023-03-26T10:43:28.864Z,1.10
2023-03-26T10:46:15.171Z,1.80
2023-03-26T10:49:19.454Z,1.30
2023-03-26T10:51:55.375Z,1.33
2023-03-26T10:54:35.080Z,1.27
2023-03-26T10:57:06.790Z,1.70
2023-03-26T10:59:33.570Z,1.30
2023-03-26T11:02:30.386Z,1.33
2023-03-26T11:05:03.866Z,1.40
2023-03-26T11:07:40.366Z,1.50
2023-03-26T11:10:12.111Z,1.53
2023-03-26T11:12:49.876Z,1.90
2023-03-26T11:16:03.720Z,1.67
2023-03-26T11:19:07.487Z,1.30
2023-03-26T11:22:02.904Z,1.40
2023-03-26T11:24:55.061Z,1.60
2023-03-26T11:27:32.285Z,1.40
2023-03-26T11:30:26.991Z,1.80
2023-03-26T11:33:07.168Z,1.30
2023-03-26T11:35:39.622Z,1.30
2023-03-26T11:38:30.303Z,1.33
2023-03-26T11:41:00.990Z,1.10
2023-03-26T11:44:03.623Z,1.60
2023-03-26T11:46:33.890Z,1.37
2023-03-26T11:49:06.933Z,1.30
2023-03-26T11:51:47.969Z,1.30
2023-03-26T11:54:18.636Z,1.20
2023-03-26T11:57:04.984Z,1.30
2023-03-26T11:59:57.621Z,1.50
2023-03-26T12:02:34.272Z,1.07
2023-03-26T12:05:20.880Z,1.30
2023-03-26T12:07:53.287Z,1.50
2023-03-26T12:10:32.190Z,1.40
2023-03-26T12:13:21.797Z,1.07
2023-03-26T12:15:49.848Z,1.07
2023-03-26T12:18:35.150Z,1.07
2023-03-26T12:21:04.826Z,1.00
2023-03-26T12:23:46.771Z,0.90
2023-03-26T12:26:22.061Z,1.10
2023-03-26T12:28:51.232Z,1.53
2023-03-26T12:31:19.607Z,1.27
2023-03-26T12:34:19.952Z,1.10
2023-03-26T12:36:57.077Z,1.23
2023-03-26T12:40:10.094Z,1.00
2023-03-26T12:44:47.302Z,1.40
2023-03-26T12:45:37.020Z,1.00
2023-03-26T12:48:08.103Z,1.00
2023-03-26T12:50:58.671Z,0.97
2023-03-26T12:53:38.542Z,1.10
2023-03-26T12:56:19.949Z,1.00
2023-03-26T12:59:09.685Z,1.20
2023-03-26T13:02:14.050Z,1.40
2023-03-26T13:05:12.048Z,1.20
2023-03-26T13:08:05.075Z,1.00
2023-03-26T13:10:44.060Z,1.10
2023-03-26T13:13:48.432Z,0.80
2023-03-26T13:16:31.215Z,1.10
2023-03-26T13:19:21.816Z,1.10
2023-03-26T13:22:06.315Z,1.03
2023-03-26T13:24:59.155Z,0.70
2023-03-26T13:27:53.614Z,1.30
2023-03-26T13:31:04.928Z,0.90
2023-03-26T13:33:59.096Z,0.90
2023-03-26T13:36:48.056Z,1.00
2023-03-26T13:39:20.375Z,0.80
2023-03-26T13:42:05.769Z,0.70
2023-03-26T13:44:41.866Z,0.63
2023-03-26T13:47:16.878Z,0.90
2023-03-26T13:49:55.467Z,0.90
2023-03-26T13:52:26.818Z,1.03
2023-03-26T13:55:21.583Z,1.20
2023-03-26T13:58:08.823Z,1.30
2023-03-26T14:00:54.354Z,1.30
2023-03-26T14:03:51.575Z,1.20
2023-03-26T14:06:46.946Z,1.20
2023-03-26T14:09:37.944Z,0.93
2023-03-26T14:12:31.958Z,0.93
2023-03-26T14:15:24.092Z,1.53
2023-03-26T14:18:13.112Z,0.93
2023-03-26T14:21:12.661Z,0.77
2023-03-26T14:23:49.128Z,0.83
2023-03-26T14:26:51.953Z,0.67
2023-03-26T14:29:23.649Z,0.90
2023-03-26T14:32:24.121Z,1.00
2023-03-26T14:35:13.380Z,1.20
2023-03-26T14:38:02.105Z,0.83
2023-03-26T14:40:47.737Z,0.80
2023-03-26T14:43:52.269Z,0.70
2023-03-26T14:46:44.473Z,1.00
2023-03-26T14:49:38.389Z,0.93
2023-03-26T14:52:18.392Z,1.00
2023-03-26T14:54:47.050Z,1.03
2023-03-26T14:57:52.300Z,0.97
2023-03-26T15:00:42.811Z,1.30
2023-03-26T15:03:09.782Z,1.13
2023-03-26T15:06:04.459Z,1.20
2023-03-26T15:09:06.995Z,1.20
2023-03-26T15:11:39.882Z,1.23
2023-03-26T15:14:25.620Z,1.07
2023-03-26T15:16:58.496Z,0.97
2023-03-26T15:19:56.456Z,1.30
2023-03-26T15:22:37.878Z,0.87
2023-03-26T15:25:18.904Z,0.80
2023-03-26T15:28:15.300Z,1.10
2023-03-26T15:30:51.268Z,1.30
2023-03-26T15:33:27.389Z,1.57
2023-03-26T15:35:57.777Z,1.60
2023-03-26T15:38:33.585Z,1.80
2023-03-26T15:41:23.804Z,1.40
2023-03-26T15:46:38.470Z,1.67
2023-03-26T15:49:36.232Z,1.50
2023-03-26T15:52:28.469Z,2.00
2023-03-26T15:54:55.892Z,2.00
2023-03-26T15:57:43.971Z,1.80
2023-03-26T16:00:23.004Z,1.70
2023-03-26T16:03:12.332Z,1.70
2023-03-26T16:05:42.228Z,2.27
2023-03-26T16:08:14.972Z,2.30
2023-03-26T16:10:57.895Z,2.77
2023-03-26T16:13:38.552Z,2.67
2023-03-26T16:16:07.037Z,3.00
2023-03-26T16:19:01.531Z,3.23
2023-03-26T16:21:32.798Z,4.10
2023-03-26T16:24:02.970Z,3.90
2023-03-26T16:27:08.057Z,3.73
2023-03-26T16:30:00.621Z,3.70
2023-03-26T16:32:29.838Z,3.67
2023-03-26T16:35:02.894Z,3.73
2023-03-26T16:37:39.541Z,5.17
2023-03-26T16:40:18.440Z,4.60
2023-03-26T16:43:06.943Z,4.00
2023-03-26T16:45:52.129Z,4.37
2023-03-26T16:48:46.456Z,3.67
2023-03-26T16:51:31.910Z,4.20
2023-03-26T16:54:13.014Z,3.63
2023-03-26T16:56:46.512Z,4.13
2023-03-26T17:00:05.963Z,3.10
2023-03-26T17:02:49.267Z,3.77
2023-03-26T17:05:34.251Z,3.33
2023-03-26T17:08:46.404Z,3.23
2023-03-26T17:11:19.393Z,2.60
2023-03-26T17:14:12.615Z,2.70
2023-03-26T17:17:01.313Z,3.20
2023-03-26T17:19:42.024Z,3.27
2023-03-26T17:22:22.113Z,3.50
2023-03-26T17:25:23.770Z,3.93
2023-03-26T17:28:07.633Z,4.00
2023-03-26T17:31:05.113Z,3.60
2023-03-26T17:33:34.963Z,3.40
2023-03-26T17:36:11.453Z,3.17
2023-03-26T17:38:39.084Z,3.70
2023-03-26T17:41:11.411Z,4.97
2023-03-26T17:43:52.086Z,3.57
2023-03-26T17:46:37.982Z,2.27
2023-03-26T17:49:29.455Z,2.97
2023-03-26T17:52:02.387Z,2.90
2023-03-26T17:54:41.597Z,3.63
2023-03-26T17:57:16.689Z,2.77
2023-03-26T17:59:45.289Z,2.30
2023-03-26T18:02:27.820Z,2.30
2023-03-26T18:04:55.850Z,3.10
2023-03-26T18:07:56.875Z,2.47
2023-03-26T18:11:01.989Z,1.73
2023-03-26T18:13:56.902Z,1.87
2023-03-26T18:16:30.070Z,1.57
2023-03-26T18:19:01.667Z,2.07
2023-03-26T18:21:39.434Z,2.00
2023-03-26T18:24:15.680Z,1.67
2023-03-26T18:26:49.531Z,1.53
2023-03-26T18:29:25.711Z,1.70
2023-03-26T18:32:03.644Z,1.70
2023-03-26T18:34:32.734Z,1.83
2023-03-26T18:37:20.118Z,1.60
2023-03-26T18:40:11.536Z,1.47
2023-03-26T18:42:45.261Z,1.90
2023-03-26T18:45:19.268Z,2.20
2023-03-26T18:47:50.359Z,1.93
2023-03-26T18:50:36.989Z,2.07
2023-03-26T18:53:10.740Z,1.90
2023-03-26T18:55:41.401Z,2.00
2023-03-26T18:58:32.902Z,2.43
2023-03-26T19:01:02.153Z,1.80
2023-03-26T19:03:37.015Z,1.70
2023-03-26T19:06:10.501Z,1.97
2023-03-26T19:08:39.243Z,1.67
2023-03-26T19:11:08.414Z,1.60
2023-03-26T19:13:36.687Z,2.07
2023-03-26T19:16:21.302Z,2.10
2023-03-26T19:18:48.520Z,1.87
2023-03-26T19:21:18.358Z,2.17
2023-03-26T19:23:46.836Z,1.67
2023-03-26T19:26:14.047Z,1.83
2023-03-26T19:28:49.327Z,2.13
2023-03-26T19:31:17.388Z,1.80
2023-03-26T19:33:45.989Z,1.90
2023-03-26T19:36:13.887Z,2.33
2023-03-26T19:38:54.513Z,1.80
2023-03-26T19:41:24.329Z,2.00
2023-03-26T19:43:55.852Z,2.57
2023-03-26T19:46:23.691Z,1.70
2023-03-26T19:48:54.518Z,1.63
2023-03-26T19:51:30.957Z,2.10
2023-03-26T19:54:01.066Z,1.57
2023-03-26T19:56:28.886Z,1.67
2023-03-26T19:58:56.329Z,1.93
2023-03-26T20:01:28.383Z,2.00
2023-03-26T20:03:58.158Z,1.73
2023-03-26T20:06:38.359Z,1.50
2023-03-26T20:09:11.235Z,1.73
2023-03-26T20:11:39.705Z,1.87
2023-03-26T20:14:13.908Z,1.40
2023-03-26T20:16:42.207Z,1.60
2023-03-26T20:19:11.195Z,2.07
2023-03-26T20:21:41.619Z,1.70
2023-03-26T20:24:16.942Z,1.80
2023-03-26T20:26:45.074Z,1.70
2023-03-26T20:29:13.169Z,1.77
2023-03-26T20:31:41.960Z,1.40
2023-03-26T20:34:20.434Z,2.50
2023-03-26T20:36:48.070Z,1.50
2023-03-26T20:39:14.952Z,2.13
2023-03-26T20:41:46.064Z,1.57
2023-03-26T20:44:15.621Z,2.13
2023-03-26T20:46:44.437Z,1.53
2023-03-26T20:49:12.373Z,1.50
2023-03-26T20:51:41.918Z,1.63
2023-03-26T20:54:15.928Z,1.87
2023-03-26T20:56:43.136Z,1.83
2023-03-26T20:59:11.708Z,1.80
2023-03-26T21:01:39.016Z,1.50
2023-03-26T21:04:06.607Z,1.47
2023-03-26T21:06:33.650Z,1.43
2023-03-26T21:09:03.014Z,1.67
2023-03-26T21:12:00.650Z,2.13
2023-03-26T21:14:44.364Z,1.73
2023-03-26T21:17:22.335Z,1.60
2023-03-26T21:19:49.864Z,2.20
2023-03-26T21:22:35.094Z,1.53
2023-03-26T21:25:21.413Z,1.60
2023-03-26T21:27:54.290Z,1.37
2023-03-26T21:30:22.335Z,1.47
2023-03-26T21:32:49.926Z,2.10
2023-03-26T21:35:21.286Z,1.70
2023-03-26T21:37:58.101Z,1.60
2023-03-26T21:40:25.061Z,1.67
2023-03-26T21:42:54.305Z,1.90
2023-03-26T21:45:22.178Z,2.00
2023-03-26T21:47:49.608Z,1.50
2023-03-26T21:50:19.330Z,1.70
2023-03-26T21:52:49.805Z,1.83
2023-03-26T21:55:21.630Z,2.00
2023-03-26T21:58:12.292Z,1.57
2023-03-26T22:01:08.240Z,1.20
2023-03-26T22:03:58.564Z,1.70
2023-03-26T22:06:34.200Z,1.13
2023-03-26T22:09:01.279Z,1.60
2023-03-26T22:11:28.227Z,1.50
2023-03-26T22:13:56.868Z,1.90
2023-03-26T22:16:26.926Z,1.43
2023-03-26T22:18:53.924Z,1.20
2023-03-26T22:21:23.533Z,1.60
2023-03-26T22:23:54.321Z,1.60
2023-03-26T22:26:26.092Z,1.33
2023-03-26T22:28:53.265Z,1.47
2023-03-26T22:31:20.910Z,1.60
2023-03-26T22:34:08.150Z,1.90
2023-03-26T22:36:40.574Z,1.50
2023-03-26T22:39:07.640Z,2.00
2023-03-26T22:41:34.422Z,1.57
2023-03-26T22:44:16.691Z,1.60
2023-03-26T22:46:49.666Z,1.37
2023-03-26T22:49:17.398Z,1.90
2023-03-26T22:51:44.217Z,1.73
2023-03-26T22:54:11.379Z,1.63
2023-03-26T22:56:38.197Z,1.90
2023-03-26T22:59:05.188Z,1.60
2023-03-26T23:01:32.263Z,1.67
2023-03-26T23:03:59.298Z,1.50
2023-03-26T23:06:26.504Z,1.70
2023-03-26T23:08:54.432Z,1.33
2023-03-26T23:11:23.373Z,1.70
2023-03-26T23:13:50.237Z,1.37
2023-03-26T23:16:17.626Z,1.43
2023-03-26T23:18:44.993Z,1.37
2023-03-26T23:21:21.244Z,1.63
2023-03-26T23:23:50.117Z,1.40
2023-03-26T23:26:22.247Z,1.70
2023-03-26T23:28:51.174Z,1.63
2023-03-26T23:31:18.256Z,1.63
2023-03-26T23:33:47.976Z,1.40
2023-03-26T23:36:18.432Z,1.40
2023-03-26T23:38:48.565Z,2.13
2023-03-26T23:41:16.881Z,1.20
2023-03-26T23:43:53.443Z,1.80
2023-03-26T23:46:31.078Z,1.43
2023-03-26T23:49:10.833Z,1.63
2023-03-26T23:51:38.513Z,1.77
2023-03-26T23:54:05.354Z,1.73
2023-03-26T23:56:33.664Z,1.53
2023-03-26T23:59:00.989Z,1.47
